createdAt,value
2023-03-16T00:04:24.397Z,21.74
2023-03-16T00:09:31.377Z,21.71
2023-03-16T00:14:36.007Z,21.66
2023-03-16T00:19:38.733Z,21.62
2023-03-16T00:24:43.094Z,21.57
2023-03-16T00:29:49.156Z,21.54
2023-03-16T00:34:52.529Z,21.51
2023-03-16T00:39:56.674Z,21.46
2023-03-16T00:45:01.769Z,21.44
2023-03-16T00:50:05.014Z,21.41
2023-03-16T00:55:08.969Z,21.36
2023-03-16T01:00:16.703Z,21.32
2023-03-16T01:05:19.730Z,21.29
2023-03-16T01:10:22.593Z,21.25
2023-03-16T01:15:27.012Z,21.24
2023-03-16T01:20:30.587Z,21.20
2023-03-16T01:25:33.522Z,21.14
2023-03-16T01:30:37.674Z,21.10
2023-03-16T01:35:41.109Z,21.06
2023-03-16T01:40:44.446Z,21.04
2023-03-16T01:46:18.393Z,21.01
2023-03-16T01:51:28.323Z,20.98
2023-03-16T01:56:36.579Z,20.95
2023-03-16T02:01:40.901Z,20.91
2023-03-16T02:06:44.559Z,20.89
2023-03-16T02:11:48.733Z,20.84
2023-03-16T02:16:53.585Z,20.81
2023-03-16T02:22:03.495Z,20.78
2023-03-16T02:27:10.346Z,20.76
2023-03-16T02:32:18.362Z,20.73
2023-03-16T02:37:21.829Z,20.70
2023-03-16T02:42:27.285Z,20.67
2023-03-16T02:47:41.544Z,20.65
2023-03-16T02:52:44.507Z,20.62
2023-03-16T02:57:47.552Z,20.60
2023-03-16T03:02:53.501Z,20.57
2023-03-16T03:07:56.845Z,20.55
2023-03-16T03:13:00.204Z,20.53
2023-03-16T03:18:05.658Z,20.51
2023-03-16T03:23:08.947Z,20.48
2023-03-16T03:28:11.884Z,20.45
2023-03-16T03:33:16.621Z,20.42
2023-03-16T03:38:19.404Z,20.42
2023-03-16T03:43:22.625Z,20.40
2023-03-16T03:48:29.697Z,20.37
2023-03-16T03:53:33.677Z,20.36
2023-03-16T03:58:59.371Z,20.32
2023-03-16T04:04:29.856Z,20.32
2023-03-16T04:09:33.902Z,20.30
2023-03-16T04:14:37.700Z,20.28
2023-03-16T04:19:46.007Z,20.26
2023-03-16T04:24:52.232Z,20.27
2023-03-16T04:29:58.531Z,20.23
2023-03-16T04:35:03.150Z,20.23
2023-03-16T04:40:24.456Z,20.19
2023-03-16T04:45:36.156Z,20.18
2023-03-16T04:50:40.866Z,20.17
2023-03-16T04:55:45.698Z,20.15
2023-03-16T05:00:49.060Z,20.12
2023-03-16T05:06:02.011Z,20.11
2023-03-16T05:11:08.509Z,20.08
2023-03-16T05:16:17.812Z,20.06
2023-03-16T05:21:23.225Z,20.04
2023-03-16T05:26:34.054Z,20.02
2023-03-16T05:31:38.378Z,20.01
2023-03-16T05:36:48.536Z,19.99
2023-03-16T05:41:55.067Z,19.97
2023-03-16T05:47:15.591Z,19.96
2023-03-16T05:52:25.503Z,19.96
2023-03-16T05:57:30.111Z,19.96
2023-03-16T06:02:34.880Z,19.95
2023-03-16T06:07:39.269Z,19.95
2023-03-16T06:12:42.216Z,19.95
2023-03-16T06:17:45.268Z,19.94
2023-03-16T06:22:49.947Z,19.94
2023-03-16T06:27:53.158Z,19.94
2023-03-16T06:32:56.195Z,19.93
2023-03-16T06:38:01.279Z,19.93
2023-03-16T06:43:20.684Z,19.93
2023-03-16T06:48:23.608Z,19.93
2023-03-16T06:53:28.458Z,19.94
2023-03-16T06:58:32.774Z,19.95
2023-03-16T07:03:37.463Z,19.94
2023-03-16T07:08:56.345Z,19.95
2023-03-16T07:14:00.385Z,19.93
2023-03-16T07:19:04.448Z,19.94
2023-03-16T07:24:11.208Z,19.95
2023-03-16T07:29:15.880Z,19.96
2023-03-16T07:34:19.228Z,19.97
2023-03-16T07:39:28.660Z,19.96
2023-03-16T07:44:38.800Z,19.96
2023-03-16T07:49:42.425Z,18.72
2023-03-16T07:54:46.791Z,15.45
2023-03-16T07:59:49.927Z,14.88
2023-03-16T08:04:53.778Z,14.22
2023-03-16T08:09:58.083Z,17.03
2023-03-16T08:15:10.204Z,18.16
2023-03-16T08:20:15.456Z,18.63
2023-03-16T08:25:21.153Z,18.99
2023-03-16T08:30:33.291Z,19.24
2023-03-16T08:35:56.080Z,19.41
2023-03-16T08:41:00.641Z,19.62
2023-03-16T08:46:04.272Z,19.75
2023-03-16T08:51:18.856Z,19.83
2023-03-16T08:56:23.352Z,19.91
2023-03-16T09:01:26.575Z,19.94
2023-03-16T09:06:30.400Z,19.98
2023-03-16T09:11:34.507Z,20.02
2023-03-16T09:16:38.372Z,20.01
2023-03-16T09:21:41.248Z,20.04
2023-03-16T09:26:45.689Z,20.04
2023-03-16T09:31:48.981Z,20.08
2023-03-16T09:36:53.697Z,20.09
2023-03-16T09:42:05.759Z,20.11
2023-03-16T09:47:12.033Z,20.11
2023-03-16T09:52:28.053Z,20.13
2023-03-16T09:57:51.653Z,20.14
2023-03-16T10:03:54.970Z,20.17
2023-03-16T10:09:06.982Z,20.19
2023-03-16T10:14:20.449Z,20.23
2023-03-16T10:19:33.039Z,20.24
2023-03-16T10:24:46.524Z,20.26
2023-03-16T10:29:50.916Z,20.27
2023-03-16T10:34:59.600Z,19.87
2023-03-16T10:40:09.055Z,20.11
2023-03-16T10:45:28.626Z,20.24
2023-03-16T10:50:34.193Z,20.31
2023-03-16T10:55:43.600Z,20.42
2023-03-16T11:00:47.786Z,20.48
2023-03-16T11:05:59.164Z,20.54
2023-03-16T11:11:11.801Z,20.58
2023-03-16T11:16:29.217Z,20.64
2023-03-16T11:21:41.773Z,20.68
2023-03-16T11:26:48.841Z,20.72
2023-03-16T11:31:58.816Z,20.74
2023-03-16T11:37:12.998Z,20.78
2023-03-16T11:42:28.406Z,20.77
2023-03-16T11:47:55.083Z,20.78
2023-03-16T11:53:07.459Z,20.80
2023-03-16T11:58:29.117Z,20.91
2023-03-16T12:03:50.259Z,20.99
2023-03-16T12:09:25.194Z,21.08
2023-03-16T12:14:32.111Z,21.17
2023-03-16T12:19:44.685Z,21.22
2023-03-16T12:24:48.251Z,21.29
2023-03-16T12:30:03.803Z,21.36
2023-03-16T12:35:22.278Z,21.43
2023-03-16T12:40:34.868Z,21.45
2023-03-16T12:45:43.316Z,21.48
2023-03-16T12:50:52.586Z,21.54
2023-03-16T12:55:57.280Z,21.56
2023-03-16T13:01:01.003Z,21.67
2023-03-16T13:06:06.239Z,21.73
2023-03-16T13:11:11.293Z,21.68
2023-03-16T13:16:25.582Z,21.67
2023-03-16T13:21:40.930Z,21.70
2023-03-16T13:26:47.444Z,21.74
2023-03-16T13:31:51.483Z,21.71
2023-03-16T13:36:58.148Z,21.75
2023-03-16T13:42:04.626Z,21.87
2023-03-16T13:47:08.392Z,21.80
2023-03-16T13:52:21.465Z,21.85
2023-03-16T13:57:26.889Z,21.89
2023-03-16T14:02:29.811Z,22.00
2023-03-16T14:07:38.608Z,22.10
2023-03-16T14:12:51.836Z,22.20
2023-03-16T14:17:54.785Z,22.50
2023-03-16T14:23:01.513Z,22.57
2023-03-16T14:28:08.855Z,22.74
2023-03-16T14:33:28.385Z,23.02
2023-03-16T14:38:36.316Z,23.16
2023-03-16T14:43:46.131Z,23.04
2023-03-16T14:48:50.550Z,23.19
2023-03-16T14:53:54.869Z,23.22
2023-03-16T14:58:58.151Z,23.31
2023-03-16T15:04:02.257Z,23.34
2023-03-16T15:09:07.099Z,23.33
2023-03-16T15:14:37.677Z,23.42
2023-03-16T15:19:41.398Z,23.58
2023-03-16T15:24:46.492Z,23.65
2023-03-16T15:29:49.425Z,23.72
2023-03-16T15:34:53.321Z,23.67
2023-03-16T15:39:57.637Z,23.68
2023-03-16T15:45:00.662Z,23.51
2023-03-16T15:50:03.598Z,23.40
2023-03-16T15:55:15.300Z,23.26
2023-03-16T16:00:28.893Z,23.22
2023-03-16T16:05:33.041Z,23.10
2023-03-16T16:10:37.318Z,22.93
2023-03-16T16:15:41.438Z,23.06
2023-03-16T16:20:44.334Z,23.11
2023-03-16T16:25:49.654Z,23.11
2023-03-16T16:30:52.595Z,23.09
2023-03-16T16:35:57.940Z,23.20
2023-03-16T16:41:07.569Z,23.20
2023-03-16T16:46:16.445Z,23.19
2023-03-16T16:51:21.558Z,23.16
2023-03-16T16:56:28.751Z,23.10
2023-03-16T17:01:34.960Z,22.98
2023-03-16T17:06:37.778Z,22.95
2023-03-16T17:11:43.478Z,22.92
2023-03-16T17:16:48.318Z,22.93
2023-03-16T17:21:52.132Z,22.87
2023-03-16T17:26:58.749Z,22.80
2023-03-16T17:32:03.782Z,22.77
2023-03-16T17:37:08.470Z,22.71
2023-03-16T17:42:15.885Z,22.64
2023-03-16T17:47:23.024Z,22.50
2023-03-16T17:52:28.423Z,22.41
2023-03-16T17:57:34.541Z,22.36
2023-03-16T18:02:41.521Z,22.32
2023-03-16T18:07:44.327Z,22.27
2023-03-16T18:12:55.135Z,22.21
2023-03-16T18:17:59.465Z,22.14
2023-03-16T18:23:03.614Z,22.09
2023-03-16T18:28:09.782Z,22.03
2023-03-16T18:33:24.829Z,21.99
2023-03-16T18:38:31.425Z,21.95
2023-03-16T18:43:36.048Z,21.89
2023-03-16T18:48:38.872Z,21.85
2023-03-16T18:53:42.017Z,21.79
2023-03-16T18:58:47.005Z,21.75
2023-03-16T19:03:50.055Z,21.72
2023-03-16T19:08:53.451Z,21.67
2023-03-16T19:13:57.681Z,21.63
2023-03-16T19:19:00.674Z,21.59
2023-03-16T19:24:05.961Z,21.54
2023-03-16T19:29:14.241Z,21.56
2023-03-16T19:34:18.727Z,21.59
2023-03-16T19:39:21.691Z,21.65
2023-03-16T19:44:27.968Z,21.69
2023-03-16T19:49:31.849Z,21.76
2023-03-16T19:54:35.081Z,21.79
2023-03-16T19:59:39.435Z,21.81
2023-03-16T20:04:42.270Z,21.87
2023-03-16T20:09:45.973Z,21.89
2023-03-16T20:14:51.235Z,21.93
2023-03-16T20:19:54.062Z,21.98
2023-03-16T20:24:57.965Z,21.95
2023-03-16T20:30:02.851Z,22.01
2023-03-16T20:35:14.630Z,22.07
2023-03-16T20:40:17.921Z,22.10
2023-03-16T20:45:25.725Z,22.13
2023-03-16T20:50:30.638Z,22.16
2023-03-16T20:55:34.001Z,22.19
2023-03-16T21:00:40.383Z,22.21
2023-03-16T21:05:43.458Z,22.22
2023-03-16T21:10:48.529Z,22.24
2023-03-16T21:15:55.782Z,22.27
2023-03-16T21:20:58.833Z,22.30
2023-03-16T21:26:03.760Z,22.30
2023-03-16T21:31:08.376Z,22.32
2023-03-16T21:36:16.052Z,22.31
2023-03-16T21:41:19.097Z,22.32
2023-03-16T21:46:25.484Z,22.34
2023-03-16T21:51:31.174Z,22.36
2023-03-16T21:56:34.013Z,22.31
2023-03-16T22:01:50.932Z,22.29
2023-03-16T22:07:01.340Z,22.30
2023-03-16T22:12:04.455Z,22.24
2023-03-16T22:17:16.672Z,22.24
2023-03-16T22:22:19.527Z,22.23
2023-03-16T22:27:26.027Z,22.22
2023-03-16T22:32:30.209Z,22.20
2023-03-16T22:37:33.052Z,22.14
2023-03-16T22:42:38.523Z,22.26
2023-03-16T22:47:42.866Z,22.18
2023-03-16T22:52:48.873Z,22.19
2023-03-16T22:58:02.389Z,22.17
2023-03-16T23:03:15.180Z,22.25
2023-03-16T23:08:21.034Z,22.22
2023-03-16T23:13:27.033Z,22.18
2023-03-16T23:18:31.244Z,22.24
2023-03-16T23:23:34.035Z,22.19
2023-03-16T23:28:36.804Z,22.26
2023-03-16T23:33:42.086Z,22.26
2023-03-16T23:38:45.308Z,22.26
2023-03-16T23:43:49.570Z,22.22
2023-03-16T23:48:56.429Z,22.20
2023-03-16T23:53:59.817Z,22.15
2023-03-16T23:59:02.588Z,22.11
